Time;durP1;ratioP1;P1;durP2;ratioP2;P2;SDS_P1;SDS_P2;PMS_P1;PMS_P2;Temp;Humidity;BMP_temperature;BMP_pressure;BME280_temperature;BME280_humidity;BME280_pressure;Samples;Min_cycle;Max_cycle;Signal;HPM_P1;HPM_P2
2023/10/01 00:00:36;;;;;;;11.73;10.90;;;;;;;16.10;62.07;93220.91;5069506;28;20189;-77
2023/10/01 00:03:04;;;;;;;14.33;11.40;;;;;;;16.09;61.13;93224.63;5067448;28;21151;-77
2023/10/01 00:05:29;;;;;;;12.10;10.80;;;;;;;16.05;61.49;93223.63;5069933;28;20197;-77
2023/10/01 00:07:55;;;;;;;14.07;10.83;;;;;;;16.02;62.52;93221.59;5067679;28;20226;-77
2023/10/01 00:10:22;;;;;;;11.60;10.37;;;;;;;15.91;64.25;93222.88;5067461;28;20189;-77
2023/10/01 00:12:50;;;;;;;10.57;9.67;;;;;;;15.83;64.75;93211.19;5069374;28;20181;-77
2023/10/01 00:15:18;;;;;;;10.77;9.97;;;;;;;15.78;64.32;93211.28;5062855;28;20174;-77
2023/10/01 00:17:46;;;;;;;12.00;11.10;;;;;;;15.67;65.73;93214.44;5067757;28;20724;-77
2023/10/01 00:22:46;;;;;;;11.00;10.17;;;;;;;15.51;67.23;93210.56;5066953;28;20183;-77
2023/10/01 00:25:12;;;;;;;11.80;10.93;;;;;;;15.43;67.33;93206.75;5069053;28;20198;-76
2023/10/01 00:27:40;;;;;;;11.97;10.77;;;;;;;15.28;67.56;93204.41;5057185;28;20244;-76
2023/10/01 00:30:09;;;;;;;15.10;11.37;;;;;;;15.25;68.38;93202.31;5068554;28;20193;-77
2023/10/01 00:32:35;;;;;;;11.47;10.53;;;;;;;15.02;68.88;93202.53;5067177;28;20182;-76
2023/10/01 00:35:03;;;;;;;12.13;11.30;;;;;;;14.93;69.13;93201.63;5068783;28;20205;-77
2023/10/01 00:37:28;;;;;;;11.90;10.90;;;;;;;14.85;69.49;93178.66;5053314;28;20188;-77
2023/10/01 00:39:54;;;;;;;12.60;11.53;;;;;;;14.94;69.80;93192.69;5062088;28;20281;-76
2023/10/01 00:42:23;;;;;;;11.70;10.77;;;;;;;14.93;69.99;93196.34;5059184;28;20193;-78
2023/10/01 00:44:49;;;;;;;13.07;10.77;;;;;;;14.98;69.84;93204.94;5067603;28;20292;-77
2023/10/01 00:47:16;;;;;;;11.33;10.57;;;;;;;14.98;70.05;93199.69;5068952;28;20228;-78
2023/10/01 00:49:48;;;;;;;12.70;11.57;;;;;;;14.91;70.39;93188.00;5067641;28;20219;-77
2023/10/01 00:52:20;;;;;;;12.27;11.27;;;;;;;14.85;71.38;93199.69;5055955;28;20193;-77
2023/10/01 00:54:46;;;;;;;13.20;12.10;;;;;;;14.82;71.04;93195.00;5056618;28;20213;-77
2023/10/01 00:57:15;;;;;;;11.70;10.90;;;;;;;14.74;70.75;93209.56;5068868;28;20196;-76
2023/10/01 00:59:43;;;;;;;11.30;10.40;;;;;;;14.75;69.24;93199.84;5060722;28;20276;-77
2023/10/01 01:02:09;;;;;;;12.87;11.87;;;;;;;14.72;69.73;93195.16;5064055;28;20189;-77
2023/10/01 01:04:42;;;;;;;12.03;11.23;;;;;;;14.67;69.61;93195.25;5068736;28;20221;-77
2023/10/01 01:07:20;;;;;;;11.40;10.43;;;;;;;14.67;68.70;93193.41;5068447;28;20217;-77
2023/10/01 01:09:46;;;;;;;12.00;10.93;;;;;;;14.60;70.06;93187.72;5068486;28;20285;-77
2023/10/01 01:12:13;;;;;;;11.83;10.93;;;;;;;14.62;70.50;93195.31;5060688;28;20185;-77
2023/10/01 01:14:39;;;;;;;12.20;11.30;;;;;;;14.62;70.35;93190.06;5048779;28;20218;-76
2023/10/01 01:17:05;;;;;;;11.97;10.93;;;;;;;14.55;68.55;93189.66;5066157;28;20241;-76
2023/10/01 01:19:33;;;;;;;14.07;11.50;;;;;;;14.58;70.51;93192.50;5068102;28;20213;-77
2023/10/01 01:22:02;;;;;;;12.30;11.23;;;;;;;14.54;70.74;93188.13;5067379;28;20189;-77
2023/10/01 01:24:29;;;;;;;12.00;10.97;;;;;;;14.54;70.91;93190.75;5067140;28;20240;-78
2023/10/01 01:27:00;;;;;;;12.50;11.50;;;;;;;14.58;70.53;93189.88;5066606;28;20902;-77
2023/10/01 01:29:40;;;;;;;13.70;11.93;;;;;;;14.67;68.62;93188.16;5067427;28;20212;-77
2023/10/01 01:32:12;;;;;;;12.83;11.90;;;;;;;14.67;68.75;93182.88;5067606;28;20184;-77
2023/10/01 01:34:40;;;;;;;12.27;11.47;;;;;;;14.67;68.54;93182.88;5068040;28;20236;-77
2023/10/01 01:37:06;;;;;;;13.47;10.60;;;;;;;14.72;69.19;93189.91;5068330;28;20178;-77
2023/10/01 01:39:48;;;;;;;13.27;12.03;;;;;;;14.88;66.38;93191.22;5066331;28;20216;-77
2023/10/01 01:42:21;;;;;;;12.23;11.23;;;;;;;14.87;65.98;93182.53;5069636;28;20185;-76
2023/10/01 01:45:15;;;;;;;12.60;11.70;;;;;;;15.35;62.93;93188.19;5068251;28;20217;-77
2023/10/01 01:47:38;;;;;;;12.23;11.13;;;;;;;15.58;61.81;93184.63;5070021;28;20220;-77
2023/10/01 01:50:26;;;;;;;11.40;10.40;;;;;;;15.68;61.63;93187.03;5071867;28;20177;-77
2023/10/01 01:52:56;;;;;;;11.47;10.40;;;;;;;15.71;61.18;93186.44;5070888;28;20208;-78
2023/10/01 01:55:23;;;;;;;11.13;10.33;;;;;;;15.94;60.36;93196.75;5071432;28;20186;-77
2023/10/01 01:58:08;;;;;;;12.77;11.53;;;;;;;15.82;60.26;93183.31;5069792;28;20189;-76
2023/10/01 02:01:01;;;;;;;12.60;11.43;;;;;;;15.87;59.79;93190.31;5065200;28;20245;-77
2023/10/01 02:03:27;;;;;;;11.63;10.73;;;;;;;15.82;60.67;93193.06;5051801;28;20226;-77
2023/10/01 02:05:53;;;;;;;11.83;10.80;;;;;;;15.91;59.50;93188.66;5065653;28;20193;-77
2023/10/01 02:08:34;;;;;;;12.17;11.23;;;;;;;15.96;59.58;93196.44;5060770;28;20218;-77
2023/10/01 02:11:04;;;;;;;11.20;10.30;;;;;;;16.22;58.45;93196.66;5052776;28;20193;-77
2023/10/01 02:13:30;;;;;;;13.23;12.13;;;;;;;16.22;58.69;93186.13;5062213;28;20256;-77
2023/10/01 02:15:55;;;;;;;12.27;11.27;;;;;;;16.15;58.45;93178.63;5058778;28;20245;-78
2023/10/01 02:18:21;;;;;;;12.17;11.17;;;;;;;16.18;58.39;93187.78;5056766;28;20739;-77
2023/10/01 02:20:56;;;;;;;11.90;10.50;;;;;;;16.43;57.54;93190.63;5066074;28;20272;-78
2023/10/01 02:23:26;;;;;;;11.63;10.53;;;;;;;16.38;57.64;93185.47;5066215;28;20221;-77
2023/10/01 02:25:57;;;;;;;11.83;11.00;;;;;;;16.38;57.41;93190.75;5060205;28;20241;-77
2023/10/01 02:28:25;;;;;;;11.13;10.17;;;;;;;16.41;57.70;93194.63;5071064;28;20214;-76
2023/10/01 02:30:57;;;;;;;11.77;10.77;;;;;;;16.41;57.74;93184.09;5070228;28;20204;-78
2023/10/01 02:33:24;;;;;;;12.43;11.20;;;;;;;16.33;57.45;93182.94;5063517;28;20225;-77
2023/10/01 02:35:55;;;;;;;11.13;10.07;;;;;;;16.38;57.63;93176.78;5069258;28;20190;-77
2023/10/01 02:38:36;;;;;;;11.77;10.77;;;;;;;16.47;57.27;93183.69;5070395;28;20266;-77
2023/10/01 02:41:03;;;;;;;14.90;12.23;;;;;;;16.32;57.78;93186.66;5065571;28;20178;-77
2023/10/01 02:43:36;;;;;;;12.00;10.93;;;;;;;16.43;57.31;93182.72;5058389;28;20914;-77
2023/10/01 02:46:04;;;;;;;12.23;11.33;;;;;;;16.46;57.66;93184.00;5066279;28;20173;-86
2023/10/01 02:48:30;;;;;;;12.93;11.93;;;;;;;16.40;57.85;93188.59;5062718;28;20222;-81
2023/10/01 02:50:55;;;;;;;12.87;11.70;;;;;;;16.39;57.59;93187.03;5069634;28;20220;-85
2023/10/01 02:53:23;;;;;;;11.63;10.83;;;;;;;16.43;57.78;93182.72;5065826;28;20245;-84
2023/10/01 02:55:51;;;;;;;11.23;10.43;;;;;;;16.34;57.92;93183.75;5066483;28;20181;-84
2023/10/01 02:58:26;;;;;;;12.03;11.07;;;;;;;16.31;57.60;93184.34;5067040;28;20286;-85
2023/10/01 03:00:53;;;;;;;12.93;10.93;;;;;;;16.18;58.29;93191.22;5063786;28;20178;-84
2023/10/01 03:03:19;;;;;;;11.93;11.13;;;;;;;16.14;58.40;93187.59;5059681;28;20873;-84
2023/10/01 03:05:46;;;;;;;13.37;12.17;;;;;;;16.19;58.20;93184.09;5064085;28;20197;-85
2023/10/01 03:08:41;;;;;;;11.67;10.87;;;;;;;16.08;59.15;93180.88;5062832;28;20212;-85
2023/10/01 03:11:08;;;;;;;12.17;11.20;;;;;;;16.14;58.36;93179.69;5070947;28;20190;-83
2023/10/01 03:13:36;;;;;;;11.93;10.90;;;;;;;16.08;58.32;93181.69;5058329;28;20245;-84
2023/10/01 03:18:48;;;;;;;12.83;11.60;;;;;;;15.96;58.76;93183.28;5070015;28;20220;-83
2023/10/01 03:21:36;;;;;;;11.90;10.77;;;;;;;15.93;59.71;93183.88;5060984;28;20182;-84
2023/10/01 03:24:02;;;;;;;12.23;11.43;;;;;;;15.97;58.84;93184.81;5069992;28;20247;-84
2023/10/01 03:26:32;;;;;;;12.33;11.30;;;;;;;15.85;59.52;93177.47;5064971;28;20210;-84
2023/10/01 03:31:46;;;;;;;11.63;10.83;;;;;;;15.65;59.14;93162.09;5066168;28;20278;-84
2023/10/01 03:34:28;;;;;;;12.17;11.07;;;;;;;15.69;60.21;93170.16;5068668;28;20217;-82
2023/10/01 03:37:00;;;;;;;12.43;10.97;;;;;;;15.55;61.51;93172.81;5066148;28;20181;-84
2023/10/01 03:39:35;;;;;;;12.43;11.47;;;;;;;15.55;62.45;93169.41;5062283;28;20217;-83
2023/10/01 03:47:19;;;;;;;18.33;12.40;;;;;;;15.29;65.93;93178.84;5069379;28;20236;-84
2023/10/01 03:49:45;;;;;;;12.87;11.57;;;;;;;15.22;67.48;93184.50;5068168;28;20205;-84
2023/10/01 03:52:14;;;;;;;11.60;10.77;;;;;;;14.99;67.27;93174.19;5068981;28;20173;-83
2023/10/01 03:57:24;;;;;;;11.73;10.90;;;;;;;14.86;68.64;93182.81;5065352;28;20185;-83
2023/10/01 03:59:52;;;;;;;11.90;10.90;;;;;;;14.66;69.06;93185.81;5068865;28;20225;-83
2023/10/01 04:02:28;;;;;;;13.17;11.83;;;;;;;14.67;70.78;93182.09;5068406;28;20178;-84
2023/10/01 04:04:57;;;;;;;12.60;11.23;;;;;;;14.46;70.59;93189.53;5068206;28;20209;-83
2023/10/01 04:07:40;;;;;;;11.73;10.93;;;;;;;14.49;71.39;93181.88;5068388;28;20201;-83
2023/10/01 04:10:28;;;;;;;12.33;11.13;;;;;;;14.48;71.30;93193.44;5069211;28;20215;-81
2023/10/01 04:12:55;;;;;;;12.47;11.30;;;;;;;14.36;72.98;93187.88;5063414;28;20222;-81
2023/10/01 04:15:30;;;;;;;13.67;12.40;;;;;;;14.34;72.59;93173.44;5068403;28;20177;-82
2023/10/01 04:23:40;;;;;;;13.17;11.97;;;;;;;14.88;65.09;93193.84;5034739;28;20233;-83
2023/10/01 04:26:08;;;;;;;12.43;11.53;;;;;;;14.91;65.81;93190.63;5069586;28;20221;-83
2023/10/01 04:28:37;;;;;;;12.10;11.27;;;;;;;15.04;64.96;93192.47;5063859;28;20222;-79
2023/10/01 04:31:09;;;;;;;12.30;11.30;;;;;;;15.27;63.06;93194.16;5065176;28;20201;-79
2023/10/01 04:33:35;;;;;;;11.70;10.70;;;;;;;15.36;62.88;93195.03;5065138;28;20221;-78
2023/10/01 04:36:04;;;;;;;14.27;12.90;;;;;;;15.34;61.89;93173.50;5057502;28;20294;-77
2023/10/01 04:38:29;;;;;;;16.10;14.70;;;;;;;15.36;62.04;93168.72;5062582;28;20987;-76
2023/10/01 04:40:55;;;;;;;12.70;11.80;;;;;;;15.74;61.10;93201.66;5066493;28;20266;-76
2023/10/01 04:43:21;;;;;;;11.77;11.07;;;;;;;15.94;60.41;93214.38;5061059;28;20237;-76
2023/10/01 04:45:52;;;;;;;11.20;10.27;;;;;;;15.96;61.00;93220.16;5065070;28;20181;-76
2023/10/01 04:48:24;;;;;;;11.67;10.87;;;;;;;15.86;61.75;93210.59;5059872;28;20225;-77
2023/10/01 04:50:53;;;;;;;12.80;11.70;;;;;;;15.86;62.27;93213.22;5065967;28;20173;-76
2023/10/01 04:53:25;;;;;;;11.17;10.27;;;;;;;15.91;61.98;93217.63;5067367;28;20209;-75
2023/10/01 04:56:00;;;;;;;12.50;11.70;;;;;;;16.00;61.41;93221.88;5067194;28;20192;-76
2023/10/01 04:58:26;;;;;;;13.13;12.13;;;;;;;15.71;61.18;93163.53;5068340;28;20217;-76
2023/10/01 05:00:55;;;;;;;12.80;11.30;;;;;;;16.05;61.76;93232.31;5067045;28;20182;-77
2023/10/01 05:03:36;;;;;;;16.97;12.37;;;;;;;16.03;61.93;93225.81;5064722;28;20987;-76
2023/10/01 05:06:02;;;;;;;13.07;11.87;;;;;;;16.23;61.10;93233.25;5060925;28;20198;-77
2023/10/01 05:08:38;;;;;;;12.77;11.63;;;;;;;16.29;62.54;93244.47;5052503;28;20229;-78
2023/10/01 05:11:13;;;;;;;13.70;11.67;;;;;;;15.99;63.57;93240.63;5063620;28;20204;-76
2023/10/01 05:13:43;;;;;;;13.20;11.77;;;;;;;15.98;64.07;93239.06;5100214;28;20315;-79
2023/10/01 05:16:12;;;;;;;12.60;11.50;;;;;;;15.55;66.21;93222.81;5057360;28;20208;-79
2023/10/01 05:18:39;;;;;;;14.07;12.70;;;;;;;15.45;66.67;93235.41;5055787;28;20281;-80
2023/10/01 05:21:12;;;;;;;13.90;12.67;;;;;;;15.62;66.38;93246.13;5065016;28;20182;-81
2023/10/01 05:23:41;;;;;;;12.90;11.90;;;;;;;15.54;66.20;93252.06;5061949;28;20247;-80
2023/10/01 05:26:08;;;;;;;13.33;12.10;;;;;;;15.57;66.22;93239.13;5066611;28;20352;-79
2023/10/01 05:28:42;;;;;;;13.30;11.87;;;;;;;16.00;64.02;93252.69;5063496;28;20217;-80
2023/10/01 05:31:09;;;;;;;14.07;11.20;;;;;;;15.90;64.96;93243.19;5064462;28;20170;-79
2023/10/01 05:33:35;;;;;;;14.63;13.17;;;;;;;15.91;65.53;93255.28;5063704;28;20210;-78
2023/10/01 05:36:04;;;;;;;13.60;12.20;;;;;;;15.95;65.33;93266.75;5066912;28;20201;-78
2023/10/01 05:38:36;;;;;;;13.77;12.50;;;;;;;15.89;65.57;93262.69;5065605;28;20221;-78
2023/10/01 05:41:09;;;;;;;12.77;11.70;;;;;;;15.92;65.87;93266.59;5065014;28;20182;-81
2023/10/01 05:43:38;;;;;;;13.80;12.50;;;;;;;15.89;66.01;93267.19;5070615;28;20241;-79
2023/10/01 05:46:08;;;;;;;14.03;12.77;;;;;;;15.80;65.88;93272.34;5068448;28;20219;-79
2023/10/01 05:48:44;;;;;;;14.13;12.73;;;;;;;15.51;67.71;93252.66;5065810;28;20243;-79
2023/10/01 05:51:20;;;;;;;13.87;12.67;;;;;;;15.65;66.50;93256.84;5066373;28;20197;-78
2023/10/01 05:53:46;;;;;;;15.30;11.97;;;;;;;15.62;67.57;93267.97;5090648;28;20227;-79
2023/10/01 05:56:17;;;;;;;13.80;12.50;;;;;;;15.73;67.03;93256.19;5070745;28;20186;-78
2023/10/01 05:58:43;;;;;;;13.33;12.03;;;;;;;16.09;65.98;93256.22;5066034;28;20240;-78
2023/10/01 06:01:16;;;;;;;14.90;13.50;;;;;;;16.29;64.89;93234.69;5059730;28;20232;-80
2023/10/01 06:03:42;;;;;;;15.27;13.83;;;;;;;16.57;64.36;93244.09;5060967;28;20227;-77
2023/10/01 06:06:13;;;;;;;13.57;12.33;;;;;;;16.76;64.21;93260.50;5068064;28;20182;-77
2023/10/01 06:08:46;;;;;;;13.93;12.63;;;;;;;16.78;63.97;93252.31;5068160;28;21026;-80
2023/10/01 06:11:16;;;;;;;13.83;12.73;;;;;;;16.82;63.66;93267.25;5062055;28;20313;-77
2023/10/01 06:13:51;;;;;;;13.40;11.50;;;;;;;16.76;63.89;93242.03;5061106;28;20218;-78
2023/10/01 06:16:23;;;;;;;17.60;11.80;;;;;;;16.87;64.08;93264.47;5058979;28;20199;-77
2023/10/01 06:18:57;;;;;;;14.57;13.17;;;;;;;16.89;64.11;93254.41;5064960;28;20213;-81
2023/10/01 06:21:27;;;;;;;15.33;13.93;;;;;;;17.13;63.26;93268.06;5064081;28;20193;-79
2023/10/01 06:23:53;;;;;;;14.57;13.23;;;;;;;17.03;63.96;93249.81;5068713;28;20228;-82
2023/10/01 06:26:33;;;;;;;14.33;13.23;;;;;;;17.19;62.76;93261.56;5061694;28;20245;-85
2023/10/01 06:29:01;;;;;;;14.53;12.27;;;;;;;17.19;62.86;93250.22;5070199;28;20229;-82
2023/10/01 06:31:27;;;;;;;15.13;12.27;;;;;;;17.23;62.59;93259.09;5065104;28;20203;-86
2023/10/01 06:33:56;;;;;;;14.20;12.80;;;;;;;17.30;62.64;93257.59;5060177;28;20284;-81
2023/10/01 06:36:23;;;;;;;16.00;12.50;;;;;;;17.23;62.28;93253.84;5061076;28;20196;-80
2023/10/01 06:38:53;;;;;;;13.43;12.40;;;;;;;17.39;62.50;93279.53;5069567;28;20225;-81
2023/10/01 06:41:20;;;;;;;15.50;13.13;;;;;;;17.43;62.08;93285.75;5070315;28;20188;-80
2023/10/01 06:43:54;;;;;;;14.77;12.73;;;;;;;17.53;62.33;93277.59;5067509;28;20217;-78
2023/10/01 06:46:21;;;;;;;15.03;13.57;;;;;;;17.34;61.57;93234.78;5061139;28;20185;-77
2023/10/01 06:48:48;;;;;;;15.20;13.70;;;;;;;17.70;61.30;93289.31;5063517;28;20245;-78
2023/10/01 06:51:15;;;;;;;13.53;12.17;;;;;;;17.77;61.58;93284.38;5065314;28;20181;-75
2023/10/01 06:53:43;;;;;;;14.30;12.77;;;;;;;17.65;61.09;93277.00;5061624;28;20240;-78
2023/10/01 06:56:09;;;;;;;14.67;13.20;;;;;;;17.73;60.89;93296.63;5062003;28;20177;-78
2023/10/01 06:58:34;;;;;;;14.50;13.23;;;;;;;17.78;61.30;93285.91;5059560;28;20231;-90
2023/10/01 07:01:02;;;;;;;15.93;13.80;;;;;;;17.80;62.26;93281.91;5070664;28;20190;-85
2023/10/01 07:03:30;;;;;;;14.50;13.10;;;;;;;17.84;61.76;93279.44;5068555;28;20392;-86
2023/10/01 07:06:01;;;;;;;14.20;12.90;;;;;;;17.86;61.84;93309.72;5070714;28;20202;-93
2023/10/01 07:08:37;;;;;;;14.13;13.03;;;;;;;18.06;61.83;93292.53;5055640;28;20236;-87
2023/10/01 07:11:18;;;;;;;14.00;12.60;;;;;;;18.00;62.04;93305.13;5069740;28;20937;-82
2023/10/01 07:13:44;;;;;;;15.30;13.80;;;;;;;18.06;62.79;93297.81;5067583;28;20218;-91
2023/10/01 07:16:09;;;;;;;17.07;13.80;;;;;;;18.23;62.42;93305.78;5063133;28;20190;-82
2023/10/01 07:18:37;;;;;;;18.37;14.13;;;;;;;18.19;62.79;93304.84;5063085;28;20216;-82
2023/10/01 07:21:09;;;;;;;19.80;14.50;;;;;;;18.07;64.00;93312.59;5066796;28;20181;-80
2023/10/01 07:23:35;;;;;;;16.60;14.83;;;;;;;18.19;63.80;93296.91;5069033;28;20240;-82
2023/10/01 07:26:00;;;;;;;16.77;15.17;;;;;;;18.06;64.76;93311.03;5069212;28;20206;-85
2023/10/01 07:28:26;;;;;;;22.90;15.27;;;;;;;18.10;65.39;93310.09;5069346;28;20233;-81
2023/10/01 07:30:56;;;;;;;18.70;16.30;;;;;;;18.19;65.24;93303.00;5068186;28;20184;-85
2023/10/01 07:33:22;;;;;;;17.30;15.30;;;;;;;18.31;65.02;93311.09;5053929;28;20248;-83
2023/10/01 07:36:01;;;;;;;17.23;15.47;;;;;;;18.17;66.06;93318.38;5057483;28;20167;-81
2023/10/01 07:38:32;;;;;;;21.33;16.27;;;;;;;18.33;67.20;93316.88;5064070;28;20754;-82
2023/10/01 07:40:57;;;;;;;17.90;15.97;;;;;;;18.34;66.83;93309.69;5065613;28;20185;-80
2023/10/01 07:43:27;;;;;;;16.07;14.37;;;;;;;18.26;67.38;93305.16;5064271;28;20216;-77
2023/10/01 07:45:58;;;;;;;18.33;16.17;;;;;;;18.26;67.26;93310.44;5060508;28;20201;-78
2023/10/01 07:48:29;;;;;;;16.73;14.90;;;;;;;18.44;66.89;93309.44;5055792;28;20229;-77
2023/10/01 07:50:56;;;;;;;17.60;15.70;;;;;;;18.56;66.83;93318.31;5059981;28;20189;-77
2023/10/01 07:53:32;;;;;;;21.17;14.97;;;;;;;18.54;67.01;93311.78;5068441;28;20226;-80
2023/10/01 07:56:02;;;;;;;17.17;14.53;;;;;;;18.61;66.31;93317.41;5057182;28;20200;-79
2023/10/01 07:58:47;;;;;;;17.73;15.80;;;;;;;18.48;66.90;93308.50;5053944;28;20260;-74
2023/10/01 08:02:07;;;;;;;18.30;15.50;;;;;;;18.69;66.35;93317.38;5067356;28;20181;-73
2023/10/01 08:04:08;;;;;;;25.47;15.97;;;;;;;18.59;65.53;93314.28;5046563;28;20217;-73
2023/10/01 08:06:41;;;;;;;18.63;15.07;;;;;;;18.60;66.83;93315.84;5062063;28;20254;-73
2023/10/01 08:09:11;;;;;;;17.07;15.40;;;;;;;18.82;67.04;93323.63;5067922;28;20226;-77
2023/10/01 08:12:04;;;;;;;19.53;15.40;;;;;;;18.89;65.75;93322.09;5068509;28;20212;-76
2023/10/01 08:14:33;;;;;;;17.57;15.77;;;;;;;18.70;65.90;93318.16;5058409;28;20278;-74
2023/10/01 08:17:03;;;;;;;20.90;16.77;;;;;;;18.85;66.39;93330.94;5066811;28;20197;-76
2023/10/01 08:19:44;;;;;;;19.57;15.83;;;;;;;18.90;65.99;93322.84;5066406;28;20222;-76
2023/10/01 08:22:14;;;;;;;17.93;16.10;;;;;;;18.91;65.81;93322.53;5064963;28;20193;-75
2023/10/01 08:24:45;;;;;;;20.73;14.80;;;;;;;19.04;66.22;93320.81;5067229;28;20244;-74
2023/10/01 08:27:31;;;;;;;16.87;15.27;;;;;;;19.16;64.88;93320.94;5068866;28;20213;-76
2023/10/01 08:30:18;;;;;;;17.80;15.93;;;;;;;18.94;65.58;93313.97;5063715;28;20298;-75
2023/10/01 08:32:49;;;;;;;20.87;16.43;;;;;;;19.14;66.02;93329.22;5055765;28;20236;-75
2023/10/01 08:35:33;;;;;;;19.50;17.47;;;;;;;19.27;66.56;93327.47;5084232;28;20208;-77
2023/10/01 08:37:59;;;;;;;18.93;16.23;;;;;;;19.06;68.71;93298.25;5062791;28;20214;-77
2023/10/01 08:40:27;;;;;;;22.63;16.87;;;;;;;19.21;66.35;93323.44;5082224;28;20189;-77
2023/10/01 08:42:58;;;;;;;20.90;16.17;;;;;;;19.29;66.37;93335.94;5063777;28;20243;-78
2023/10/01 08:45:37;;;;;;;27.83;16.13;;;;;;;19.30;65.91;93316.28;5059603;28;20196;-76
2023/10/01 08:48:06;;;;;;;17.13;15.33;;;;;;;19.62;65.93;93322.91;5056466;28;20286;-76
2023/10/01 08:50:36;;;;;;;17.17;15.53;;;;;;;19.73;65.68;93330.22;5064755;28;20250;-76
2023/10/01 08:53:09;;;;;;;20.70;16.70;;;;;;;19.83;65.49;93335.16;5063395;28;20219;-76
2023/10/01 08:56:32;;;;;;;19.20;14.97;;;;;;;19.76;65.51;93331.44;5062962;28;20231;-76
2023/10/01 08:58:27;;;;;;;19.53;15.97;;;;;;;19.63;65.18;93322.59;5055193;28;20239;-76
2023/10/01 09:01:12;;;;;;;19.93;15.83;;;;;;;19.72;65.63;93328.66;5065400;28;20175;-77
2023/10/01 09:03:39;;;;;;;16.40;14.80;;;;;;;19.61;64.31;93326.69;5063591;28;20220;-76
2023/10/01 09:06:24;;;;;;;35.73;28.80;;;;;;;19.76;62.93;93334.88;5060567;28;20503;-77
2023/10/01 09:08:56;;;;;;;16.87;14.87;;;;;;;19.89;62.68;93327.84;5065284;28;20239;-75
2023/10/01 09:11:58;;;;;;;16.20;14.50;;;;;;;20.05;62.27;93340.22;5061541;28;20191;-73
2023/10/01 09:14:35;;;;;;;17.00;15.37;;;;;;;20.02;63.04;93337.44;5065675;28;20230;-75
2023/10/01 09:17:24;;;;;;;16.53;14.93;;;;;;;19.91;62.69;93334.34;5054130;28;20251;-74
2023/10/01 09:19:50;;;;;;;15.33;13.73;;;;;;;19.96;63.82;93339.50;5066478;28;20232;-75
2023/10/01 09:22:16;;;;;;;22.67;15.67;;;;;;;20.05;64.18;93337.56;5058166;28;20176;-74
2023/10/01 09:24:43;;;;;;;61.77;42.67;;;;;;;20.31;64.03;93342.81;5067301;28;20238;-74
2023/10/01 09:27:18;;;;;;;17.73;14.33;;;;;;;20.14;63.62;93335.69;5062767;28;20231;-75
2023/10/01 09:29:57;;;;;;;26.57;15.43;;;;;;;20.18;63.06;93341.94;5065544;28;20231;-75
2023/10/01 09:32:49;;;;;;;17.07;13.37;;;;;;;20.36;62.27;93339.94;5055264;28;20181;-79
2023/10/01 09:35:30;;;;;;;15.53;13.97;;;;;;;20.36;62.09;93346.03;5087057;28;20226;-82
2023/10/01 09:38:13;;;;;;;17.30;13.67;;;;;;;20.50;62.62;93343.16;5086373;28;20246;-80
2023/10/01 09:40:43;;;;;;;16.50;13.57;;;;;;;20.39;62.73;93342.75;5087337;28;20185;-83
2023/10/01 09:43:24;;;;;;;21.40;16.80;;;;;;;20.33;62.04;93344.03;5085747;28;20274;-82
2023/10/01 09:45:51;;;;;;;20.53;18.43;;;;;;;20.44;62.27;93345.22;5083720;28;20199;-85
2023/10/01 09:48:33;;;;;;;220.57;115.77;;;;;;;20.15;62.50;93347.88;5087431;28;20248;-87
2023/10/01 09:51:08;;;;;;;19.20;16.80;;;;;;;20.23;62.28;93346.28;5086126;28;20263;-82
2023/10/01 09:53:50;;;;;;;17.07;14.07;;;;;;;20.36;60.78;93347.91;5087371;28;20223;-83
2023/10/01 09:56:26;;;;;;;19.20;15.17;;;;;;;20.43;59.63;93338.38;5096662;28;20286;-86
2023/10/01 09:59:07;;;;;;;51.00;44.47;;;;;;;20.60;60.27;93332.16;5071674;28;20250;-84
2023/10/01 10:01:35;;;;;;;35.33;27.73;;;;;;;20.69;60.27;93336.31;5092120;28;20193;-81
2023/10/01 10:04:02;;;;;;;165.73;100.53;;;;;;;20.69;59.22;93323.06;5089684;28;20219;-83
2023/10/01 10:06:29;;;;;;;59.53;39.25;;;;;;;20.91;58.21;93343.19;5090830;28;20206;-80
2023/10/01 10:09:25;;;;;;;60.93;37.00;;;;;;;20.82;58.72;93339.81;5090891;28;20227;-80
2023/10/01 10:11:45;;;;;;;16.03;14.37;;;;;;;20.88;55.29;93335.09;5078794;28;20216;-85
2023/10/01 10:14:26;;;;;;;39.60;28.63;;;;;;;20.90;56.22;93333.69;5085370;28;20216;-80
2023/10/01 10:17:38;;;;;;;17.23;14.33;;;;;;;20.98;54.00;93338.16;5085627;28;20188;-80
2023/10/01 10:20:24;;;;;;;423.65;239.35;;;;;;;20.97;55.97;93330.50;5081364;28;20243;-81
2023/10/01 10:23:19;;;;;;;1999.90;999.90;;;;;;;21.10;57.28;93329.47;5088754;28;20190;-84
2023/10/01 10:25:45;;;;;;;132.43;87.88;;;;;;;21.01;57.05;93326.13;5072393;28;20915;-74
2023/10/01 10:28:12;;;;;;;26.97;23.63;;;;;;;20.73;56.41;93323.94;5088783;28;20231;-73
2023/10/01 10:30:41;;;;;;;158.63;86.00;;;;;;;20.79;56.17;93313.16;5079356;28;20302;-75
2023/10/01 10:33:29;;;;;;;35.97;27.02;;;;;;;20.60;57.34;93317.03;5088831;28;20282;-74
2023/10/01 10:36:50;;;;;;;92.65;57.90;;;;;;;20.42;55.72;93312.16;5082376;28;20197;-75
2023/10/01 10:39:48;;;;;;;381.80;251.20;;;;;;;20.21;57.12;93303.38;5066545;28;20225;-80
2023/10/01 10:42:28;;;;;;;111.18;66.57;;;;;;;20.10;57.29;93296.84;5081258;28;20189;-79
2023/10/01 10:45:20;;;;;;;38.97;32.50;;;;;;;20.45;56.33;93309.63;5086671;28;20224;-80
2023/10/01 10:48:03;;;;;;;44.20;35.60;;;;;;;20.68;56.25;93297.59;5079071;28;20277;-80
2023/10/01 10:50:45;;;;;;;15.43;13.80;;;;;;;20.58;55.57;93303.31;5085248;28;20205;-81
2023/10/01 10:53:15;;;;;;;53.67;42.83;;;;;;;20.92;55.54;93301.50;5084044;28;20227;-73
2023/10/01 10:56:17;;;;;;;15.67;14.17;;;;;;;21.19;54.19;93293.00;5089350;28;20179;-72
2023/10/01 10:58:53;;;;;;;14.45;13.07;;;;;;;21.17;51.91;93309.25;5089872;28;20246;-75
2023/10/01 11:01:19;;;;;;;50.65;39.72;;;;;;;21.09;51.93;93290.75;5090957;28;20237;-78
2023/10/01 11:03:49;;;;;;;27.20;17.70;;;;;;;21.00;51.77;93292.69;5068227;28;20212;-78
2023/10/01 11:06:29;;;;;;;17.13;15.27;;;;;;;21.35;52.74;93296.59;5083519;28;20181;-82
2023/10/01 11:08:56;;;;;;;33.22;26.98;;;;;;;21.11;52.53;93240.75;5083068;28;20264;-78
2023/10/01 11:11:28;;;;;;;15.45;13.95;;;;;;;21.65;53.45;93279.41;5090199;28;20208;-76
2023/10/01 11:14:00;;;;;;;15.95;14.30;;;;;;;21.67;53.45;93287.81;5082128;28;20223;-77
2023/10/01 11:16:36;;;;;;;17.27;13.80;;;;;;;21.70;52.15;93276.53;5079181;28;20203;-81
2023/10/01 11:19:14;;;;;;;15.32;13.63;;;;;;;21.72;52.94;93276.97;5084882;28;20229;-79
2023/10/01 11:22:00;;;;;;;18.15;16.23;;;;;;;22.08;51.85;93275.16;5080762;28;20187;-77
2023/10/01 11:24:33;;;;;;;18.63;16.55;;;;;;;22.05;52.17;93261.75;5083874;28;20218;-78
2023/10/01 11:30:15;;;;;;;15.02;13.40;;;;;;;20.96;53.90;93271.34;5081972;28;20223;-79
2023/10/01 11:38:34;;;;;;;16.03;14.40;;;;;;;21.18;54.75;93233.81;5086725;28;20322;-78
2023/10/01 11:41:08;;;;;;;15.63;14.00;;;;;;;21.47;52.14;93267.41;5078408;28;20196;-77
2023/10/01 11:43:41;;;;;;;16.65;15.15;;;;;;;21.73;52.24;93262.56;5087413;28;20225;-76
2023/10/01 11:46:18;;;;;;;21.92;14.45;;;;;;;22.10;51.51;93269.50;5088778;28;20209;-80
2023/10/01 11:48:56;;;;;;;15.07;13.50;;;;;;;21.99;51.78;93271.06;5088940;28;20246;-80
2023/10/01 11:51:32;;;;;;;20.13;14.10;;;;;;;21.70;53.44;93265.88;5080601;28;20194;-77
2023/10/01 11:54:09;;;;;;;16.67;14.83;;;;;;;21.47;54.34;93265.53;5104611;28;20217;-75
2023/10/01 11:56:37;;;;;;;20.00;15.18;;;;;;;21.31;56.16;93267.25;5077861;28;20192;-73
2023/10/01 11:59:03;;;;;;;15.93;14.27;;;;;;;20.88;56.71;93268.72;5074568;28;20218;-73
2023/10/01 12:01:38;;;;;;;15.13;13.63;;;;;;;20.85;56.97;93254.25;5070151;28;20181;-72
2023/10/01 12:04:06;;;;;;;17.08;14.95;;;;;;;20.90;56.02;93251.38;5084785;28;20222;-72
2023/10/01 12:06:34;;;;;;;16.90;15.17;;;;;;;20.98;55.93;93253.19;5069437;28;20263;-73
2023/10/01 12:08:59;;;;;;;23.42;17.45;;;;;;;21.27;55.06;93257.63;5077626;28;20229;-74
2023/10/01 12:11:27;;;;;;;21.23;15.05;;;;;;;21.40;53.60;93240.63;5085289;28;20191;-78